Time;durP1;ratioP1;P1;durP2;ratioP2;P2;SDS_P1;SDS_P2;PMS_P1;PMS_P2;Temp;Humidity;BMP_temperature;BMP_pressure;BME280_temperature;BME280_humidity;BME280_pressure;Samples;Min_cycle;Max_cycle;Signal;HPM_P1;HPM_P2
2021/03/15 00:01:50;;;;;;;18.47;10.07;;;3.80;99.90;;;;;;5035642;28;20247;-91
2021/03/15 00:04:15;;;;;;;20.70;10.83;;;3.80;99.90;;;;;;5036400;28;20200;-93
2021/03/15 00:06:41;;;;;;;16.10;9.33;;;3.80;99.90;;;;;;5037256;28;20237;-91
2021/03/15 00:09:07;;;;;;;20.30;11.40;;;5.00;99.90;;;;;;5037379;28;20541;-92
2021/03/15 00:11:33;;;;;;;22.10;11.30;;;4.80;99.90;;;;;;5035945;28;20181;-92
2021/03/15 00:13:58;;;;;;;21.03;11.43;;;3.90;99.90;;;;;;5036751;28;20609;-92
2021/03/15 00:16:24;;;;;;;20.20;10.97;;;3.80;99.90;;;;;;5019223;28;20687;-92
2021/03/15 00:18:50;;;;;;;17.77;11.17;;;3.90;99.90;;;;;;5019175;28;20223;-92
2021/03/15 00:21:15;;;;;;;21.57;11.20;;;3.90;99.90;;;;;;5018523;28;20221;-91
2021/03/15 00:23:41;;;;;;;17.03;10.07;;;3.90;99.90;;;;;;5033898;28;20197;-91
2021/03/15 00:26:06;;;;;;;18.03;11.00;;;3.90;99.90;;;;;;5017256;28;20689;-91
2021/03/15 00:28:32;;;;;;;19.53;11.47;;;4.00;99.90;;;;;;5017747;28;20710;-91
2021/03/15 00:30:58;;;;;;;17.40;10.17;;;4.00;99.90;;;;;;5017020;28;20295;-91
2021/03/15 00:33:23;;;;;;;17.20;10.03;;;4.60;99.90;;;;;;5035419;28;20299;-92
2021/03/15 00:35:50;;;;;;;25.07;10.93;;;4.20;99.90;;;;;;5033840;28;20179;-92
2021/03/15 00:38:16;;;;;;;21.47;11.40;;;4.80;99.90;;;;;;5034883;28;20629;-91
2021/03/15 00:40:41;;;;;;;15.77;10.23;;;4.70;99.90;;;;;;5017627;28;20339;-91
2021/03/15 00:43:07;;;;;;;21.40;9.63;;;3.90;99.90;;;;;;5017243;28;20335;-91
2021/03/15 00:45:33;;;;;;;19.77;8.97;;;3.80;99.90;;;;;;5017331;28;20190;-92
2021/03/15 00:47:59;;;;;;;19.83;10.50;;;3.80;99.90;;;;;;5033552;28;20278;-92
2021/03/15 00:50:31;;;;;;;16.10;9.07;;;3.70;99.90;;;;;;5035164;28;20235;-92
2021/03/15 00:52:58;;;;;;;16.57;9.33;;;4.10;99.90;;;;;;5034487;28;20196;-92
2021/03/15 00:55:25;;;;;;;16.13;9.70;;;3.90;99.90;;;;;;5034886;28;20184;-92
2021/03/15 00:57:51;;;;;;;19.07;10.20;;;3.70;99.90;;;;;;5033063;28;20266;-91
2021/03/15 01:00:23;;;;;;;20.23;10.57;;;4.20;99.90;;;;;;5017029;28;20677;-91
2021/03/15 01:02:49;;;;;;;18.47;10.57;;;3.80;99.90;;;;;;5033739;28;20193;-93
2021/03/15 01:05:16;;;;;;;17.10;10.40;;;3.80;99.90;;;;;;5033205;28;20536;-92
2021/03/15 01:07:42;;;;;;;17.23;10.03;;;3.70;99.90;;;;;;5035169;28;20695;-92
2021/03/15 01:10:12;;;;;;;17.60;9.63;;;3.70;99.90;;;;;;5017433;28;20205;-90
2021/03/15 01:12:38;;;;;;;18.47;10.40;;;3.70;99.90;;;;;;5034582;28;20166;-93
2021/03/15 01:15:12;;;;;;;22.00;10.67;;;3.60;99.90;;;;;;5032711;28;20193;-94
2021/03/15 01:17:38;;;;;;;21.10;10.97;;;3.50;99.90;;;;;;5033130;28;20630;-93
2021/03/15 01:20:08;;;;;;;19.93;11.27;;;3.50;99.90;;;;;;5032826;28;20219;-92
2021/03/15 01:22:34;;;;;;;23.77;11.73;;;3.50;99.90;;;;;;5033099;28;20293;-92
2021/03/15 01:25:00;;;;;;;23.73;11.73;;;3.50;99.90;;;;;;5016765;28;20268;-92
2021/03/15 01:27:25;;;;;;;22.23;11.70;;;3.40;99.90;;;;;;5033180;28;20228;-92
2021/03/15 01:29:52;;;;;;;26.90;13.40;;;3.50;99.90;;;;;;5034202;28;20177;-92
2021/03/15 01:32:18;;;;;;;23.00;12.33;;;3.60;99.90;;;;;;5032686;28;20516;-92
2021/03/15 01:34:43;;;;;;;20.63;11.73;;;3.80;99.90;;;;;;5034584;28;20184;-93
2021/03/15 01:37:09;;;;;;;22.43;10.60;;;3.90;99.90;;;;;;5033355;28;20183;-92
2021/03/15 01:39:34;;;;;;;21.60;11.80;;;3.50;99.90;;;;;;5018555;28;20274;-93
2021/03/15 01:42:01;;;;;;;26.53;13.03;;;3.20;99.90;;;;;;5034483;28;20302;-91
2021/03/15 01:44:28;;;;;;;24.80;13.33;;;3.20;99.90;;;;;;5017776;28;20193;-90
2021/03/15 01:46:54;;;;;;;28.40;13.63;;;3.20;99.90;;;;;;5017118;28;20195;-92
2021/03/15 01:49:20;;;;;;;23.03;12.63;;;3.10;99.90;;;;;;5033992;28;20260;-91
2021/03/15 01:51:46;;;;;;;26.60;14.33;;;3.70;99.90;;;;;;5032535;28;20215;-91
2021/03/15 01:54:15;;;;;;;24.50;12.93;;;3.70;99.90;;;;;;5034192;28;20192;-91
2021/03/15 01:56:48;;;;;;;24.47;13.20;;;2.90;99.90;;;;;;5032694;28;20185;-90
2021/03/15 01:59:17;;;;;;;24.10;12.50;;;2.90;99.90;;;;;;5032680;28;20181;-92
2021/03/15 02:01:47;;;;;;;23.03;13.13;;;3.00;99.90;;;;;;5034696;28;20209;-90
2021/03/15 02:04:14;;;;;;;23.13;12.00;;;2.80;99.90;;;;;;5033721;28;20167;-92
2021/03/15 02:06:41;;;;;;;25.97;13.47;;;2.90;99.90;;;;;;5032088;28;20266;-92
2021/03/15 02:09:07;;;;;;;24.77;13.00;;;2.70;99.90;;;;;;5032296;28;20176;-92
2021/03/15 02:11:54;;;;;;;25.33;12.87;;;2.60;99.90;;;;;;5032728;28;20188;-91
2021/03/15 02:14:58;;;;;;;23.97;11.83;;;2.50;99.90;;;;;;5033728;28;20181;-92
2021/03/15 02:17:30;;;;;;;22.80;12.80;;;2.50;99.90;;;;;;5018677;28;20185;-93
2021/03/15 02:20:33;;;;;;;22.83;12.53;;;2.40;99.90;;;;;;5033927;28;20174;-90
2021/03/15 02:23:39;;;;;;;25.03;12.77;;;2.40;99.90;;;;;;5033115;28;20187;-92
2021/03/15 02:26:31;;;;;;;24.63;13.20;;;2.40;99.90;;;;;;5033747;28;20165;-92
2021/03/15 02:29:16;;;;;;;25.40;12.23;;;2.40;99.90;;;;;;5022645;28;20604;-92
2021/03/15 02:32:20;;;;;;;25.47;12.23;;;3.00;99.90;;;;;;5034474;28;20181;-92
2021/03/15 02:34:59;;;;;;;25.50;13.17;;;2.40;99.90;;;;;;5011078;28;20192;-91
2021/03/15 02:37:54;;;;;;;26.07;13.03;;;2.40;99.90;;;;;;5015888;28;20544;-90
2021/03/15 02:40:32;;;;;;;22.93;12.33;;;2.30;99.90;;;;;;5026511;28;20212;-91
2021/03/15 02:43:07;;;;;;;21.03;12.23;;;2.20;99.90;;;;;;5034143;28;20173;-92
2021/03/15 02:45:36;;;;;;;21.60;11.83;;;2.20;99.90;;;;;;5032932;28;20271;-91
2021/03/15 02:48:09;;;;;;;23.53;12.10;;;2.20;99.90;;;;;;5033653;28;20185;-90
2021/03/15 02:50:37;;;;;;;22.97;12.47;;;2.10;99.90;;;;;;5035331;28;20180;-90
2021/03/15 02:53:05;;;;;;;23.53;13.03;;;2.80;99.90;;;;;;5036610;28;20185;-89
2021/03/15 02:55:33;;;;;;;23.47;12.70;;;3.70;99.90;;;;;;5037927;28;20528;-93
2021/03/15 02:58:02;;;;;;;22.43;12.37;;;1.90;99.90;;;;;;5036987;28;20180;-90
2021/03/15 03:00:29;;;;;;;24.07;12.63;;;2.60;99.90;;;;;;5035428;28;20288;-90
2021/03/15 03:02:56;;;;;;;24.87;12.73;;;3.00;99.90;;;;;;5020123;28;20745;-90
2021/03/15 03:05:23;;;;;;;29.00;13.80;;;2.90;99.90;;;;;;5036642;28;20183;-90
2021/03/15 03:07:51;;;;;;;32.27;15.37;;;1.90;99.90;;;;;;5035668;28;20203;-90
2021/03/15 03:10:21;;;;;;;31.77;16.20;;;2.10;99.90;;;;;;5035452;28;20200;-90
2021/03/15 03:12:48;;;;;;;27.40;14.33;;;2.30;99.90;;;;;;5037007;28;20173;-90
2021/03/15 03:15:16;;;;;;;26.87;14.03;;;1.50;99.90;;;;;;5002854;28;20195;-90
2021/03/15 03:17:43;;;;;;;26.40;14.27;;;1.40;99.90;;;;;;5035977;28;20201;-91
2021/03/15 03:20:12;;;;;;;29.03;13.80;;;1.40;99.90;;;;;;5035561;28;20208;-87
2021/03/15 03:22:39;;;;;;;24.87;14.00;;;1.40;99.90;;;;;;5037175;28;20176;-91
2021/03/15 03:25:17;;;;;;;28.23;15.40;;;2.60;99.90;;;;;;5037012;28;20176;-90
2021/03/15 03:27:45;;;;;;;37.30;16.70;;;1.30;99.90;;;;;;5036443;28;20229;-93
2021/03/15 03:30:13;;;;;;;39.17;18.53;;;1.40;99.90;;;;;;5036175;28;20607;-91
2021/03/15 03:32:41;;;;;;;30.77;14.90;;;1.20;99.90;;;;;;5036315;28;20664;-92
2021/03/15 03:35:07;;;;;;;31.53;15.80;;;2.40;99.90;;;;;;5037212;28;20177;-92
2021/03/15 03:37:34;;;;;;;27.00;14.50;;;1.20;99.90;;;;;;5019636;28;20178;-92
2021/03/15 03:39:59;;;;;;;25.03;13.67;;;1.20;99.90;;;;;;5019911;28;20206;-92
2021/03/15 03:42:25;;;;;;;25.43;14.13;;;1.20;99.90;;;;;;5037224;28;20256;-91
2021/03/15 03:44:55;;;;;;;25.37;14.10;;;1.60;99.90;;;;;;5019864;28;20185;-93
2021/03/15 03:47:21;;;;;;;25.17;12.70;;;1.10;99.90;;;;;;5035783;28;20647;-91
2021/03/15 03:49:47;;;;;;;25.53;12.77;;;1.90;99.90;;;;;;5037207;28;20176;-92
2021/03/15 03:52:15;;;;;;;22.47;12.23;;;1.10;99.90;;;;;;5036701;28;20587;-88
2021/03/15 03:54:50;;;;;;;27.43;13.63;;;1.00;99.90;;;;;;5036361;28;20215;-93
2021/03/15 03:57:23;;;;;;;30.10;13.93;;;1.10;99.90;;;;;;5035180;28;20195;-92
2021/03/15 03:59:51;;;;;;;33.80;16.03;;;1.00;99.90;;;;;;5034652;28;20207;-92
2021/03/15 04:02:23;;;;;;;36.90;17.80;;;3.30;99.90;;;;;;5016900;28;20216;-94
2021/03/15 04:04:56;;;;;;;46.67;19.87;;;3.00;99.90;;;;;;5035447;28;20248;-91
2021/03/15 04:07:25;;;;;;;68.10;28.97;;;2.10;99.90;;;;;;5034796;28;20263;-91
2021/03/15 04:10:05;;;;;;;61.40;29.97;;;1.50;99.90;;;;;;5035840;28;20250;-90
2021/03/15 04:12:33;;;;;;;47.93;21.57;;;1.70;99.90;;;;;;5034148;28;20274;-91
2021/03/15 04:15:01;;;;;;;29.60;14.80;;;1.90;99.90;;;;;;5035264;28;20184;-90
2021/03/15 04:17:40;;;;;;;33.13;17.13;;;1.90;99.90;;;;;;5033702;28;20271;-89
2021/03/15 04:20:08;;;;;;;37.03;16.90;;;0.70;99.90;;;;;;5035296;28;20200;-90
2021/03/15 04:22:45;;;;;;;39.93;20.30;;;0.70;99.90;;;;;;5034888;28;20203;-91
2021/03/15 04:25:12;;;;;;;40.13;20.40;;;1.10;99.90;;;;;;5034141;28;20701;-92
2021/03/15 04:27:42;;;;;;;32.63;15.87;;;0.70;99.90;;;;;;5036038;28;20238;-91
2021/03/15 04:30:08;;;;;;;33.20;15.23;;;0.70;99.90;;;;;;5036231;28;20637;-91
2021/03/15 04:32:34;;;;;;;24.53;12.47;;;0.70;99.90;;;;;;5034847;28;20658;-91
2021/03/15 04:35:00;;;;;;;28.07;13.40;;;0.70;99.90;;;;;;5018248;28;20219;-92
2021/03/15 04:37:27;;;;;;;26.13;13.03;;;0.80;99.90;;;;;;5034242;28;20190;-91
2021/03/15 04:39:54;;;;;;;26.90;14.00;;;1.80;99.90;;;;;;5017383;28;20180;-90
2021/03/15 04:42:21;;;;;;;24.43;11.53;;;0.80;99.90;;;;;;5034422;28;20195;-88
2021/03/15 04:44:47;;;;;;;24.70;11.90;;;0.80;99.90;;;;;;5034189;28;20176;-93
2021/03/15 04:47:13;;;;;;;22.57;11.50;;;1.70;99.90;;;;;;5034005;28;20198;-91
2021/03/15 04:49:41;;;;;;;25.30;13.50;;;0.70;99.90;;;;;;5035281;28;20527;-92
2021/03/15 04:52:08;;;;;;;26.90;12.80;;;0.70;99.90;;;;;;5035420;28;20177;-92
2021/03/15 04:54:33;;;;;;;23.63;12.20;;;0.70;99.90;;;;;;5034052;28;20226;-90
2021/03/15 04:57:01;;;;;;;26.10;13.80;;;2.10;99.90;;;;;;5033685;28;20185;-89
2021/03/15 04:59:29;;;;;;;25.13;12.20;;;0.70;99.90;;;;;;5033238;28;20283;-91
2021/03/15 05:01:55;;;;;;;24.70;13.13;;;2.00;99.90;;;;;;5034123;28;20208;-92
2021/03/15 05:04:23;;;;;;;25.73;12.87;;;0.70;99.90;;;;;;5034558;28;20626;-92
2021/03/15 05:06:50;;;;;;;26.67;12.20;;;2.10;99.90;;;;;;5015754;28;20238;-89
2021/03/15 05:09:16;;;;;;;27.20;12.73;;;0.70;99.90;;;;;;5034432;28;20231;-92
2021/03/15 05:11:43;;;;;;;22.50;12.23;;;0.60;99.90;;;;;;5033809;28;20189;-92
2021/03/15 05:14:11;;;;;;;28.00;13.70;;;1.40;99.90;;;;;;5032561;28;20271;-92
2021/03/15 05:16:38;;;;;;;29.83;13.73;;;0.60;99.90;;;;;;5016411;28;20181;-91
2021/03/15 05:19:11;;;;;;;27.03;12.87;;;0.60;99.90;;;;;;5033620;28;20188;-91
2021/03/15 05:21:39;;;;;;;26.40;14.50;;;0.50;99.90;;;;;;5033551;28;20203;-91
2021/03/15 05:24:06;;;;;;;30.03;15.63;;;2.40;99.90;;;;;;5032466;28;20545;-91
2021/03/15 05:26:35;;;;;;;43.33;22.10;;;0.50;99.90;;;;;;5026210;28;20272;-91
2021/03/15 05:29:02;;;;;;;37.50;17.00;;;0.50;99.90;;;;;;5045888;28;20277;-91
2021/03/15 05:31:33;;;;;;;37.23;16.90;;;0.70;99.90;;;;;;5039323;28;20194;-92
2021/03/15 05:34:00;;;;;;;42.33;20.67;;;0.80;99.90;;;;;;5026080;28;20185;-91
2021/03/15 05:36:27;;;;;;;53.73;24.60;;;1.80;99.90;;;;;;5045594;28;20169;-93
2021/03/15 05:38:54;;;;;;;66.83;27.87;;;1.90;99.90;;;;;;5054332;28;20175;-91
2021/03/15 05:41:29;;;;;;;60.87;26.10;;;2.50;99.90;;;;;;5056902;28;20216;-91
2021/03/15 05:44:06;;;;;;;55.37;24.30;;;0.90;99.90;;;;;;5058580;28;20210;-87
2021/03/15 05:46:50;;;;;;;39.60;19.43;;;1.00;99.90;;;;;;5058144;28;20197;-91
2021/03/15 05:49:28;;;;;;;35.53;17.63;;;2.10;99.90;;;;;;5068540;28;20196;-92
2021/03/15 05:52:05;;;;;;;27.10;14.40;;;1.10;99.90;;;;;;5063540;28;20195;-91
2021/03/15 05:55:05;;;;;;;28.80;14.30;;;1.30;99.90;;;;;;5069771;28;20186;-87
2021/03/15 05:57:55;;;;;;;28.60;14.33;;;1.50;99.90;;;;;;5062178;28;20666;-88
2021/03/15 06:00:54;;;;;;;30.10;13.97;;;1.70;99.90;;;;;;5054748;28;20199;-92
2021/03/15 06:03:47;;;;;;;26.80;13.90;;;1.80;99.90;;;;;;5034946;28;20188;-91
2021/03/15 06:06:17;;;;;;;29.83;15.50;;;2.00;99.90;;;;;;5041393;28;20723;-94
2021/03/15 06:08:47;;;;;;;30.00;13.70;;;2.60;99.90;;;;;;5037592;28;20191;-90
2021/03/15 06:11:18;;;;;;;24.30;13.27;;;2.20;99.90;;;;;;5030495;28;20286;-93
2021/03/15 06:13:44;;;;;;;26.57;14.23;;;3.60;99.90;;;;;;5035417;28;20184;-90
2021/03/15 06:16:11;;;;;;;25.73;13.23;;;2.30;99.90;;;;;;5001437;28;20759;-93
2021/03/15 06:18:38;;;;;;;29.20;14.17;;;2.90;99.90;;;;;;5004434;28;20203;-95
2021/03/15 06:21:04;;;;;;;24.50;13.67;;;2.60;99.90;;;;;;5035034;28;20204;-91
2021/03/15 06:23:30;;;;;;;24.00;13.10;;;2.70;99.90;;;;;;5020806;28;20192;-89
2021/03/15 06:25:56;;;;;;;22.73;12.83;;;2.90;99.90;;;;;;5034354;28;20546;-94
2021/03/15 06:28:24;;;;;;;29.17;12.40;;;3.00;99.90;;;;;;5038433;28;20675;-90
2021/03/15 06:30:51;;;;;;;24.97;14.00;;;3.00;99.90;;;;;;5029178;28;20270;-91
2021/03/15 06:33:17;;;;;;;23.57;12.43;;;3.30;99.90;;;;;;5036943;28;20189;-91
2021/03/15 06:36:04;;;;;;;21.93;11.47;;;3.10;99.90;;;;;;5034440;28;20615;-87
2021/03/15 06:38:32;;;;;;;22.30;11.70;;;3.20;99.90;;;;;;5041735;28;20277;-89
2021/03/15 06:40:59;;;;;;;23.53;11.37;;;3.70;99.90;;;;;;5012831;28;20272;-91
2021/03/15 06:43:27;;;;;;;22.77;12.37;;;3.30;99.90;;;;;;5019516;28;20283;-89
2021/03/15 06:45:54;;;;;;;21.13;11.53;;;3.50;99.90;;;;;;5031987;28;20236;-89
2021/03/15 06:48:20;;;;;;;25.10;10.80;;;3.60;99.90;;;;;;5030162;28;20202;-88
2021/03/15 06:50:48;;;;;;;26.67;11.80;;;3.50;99.90;;;;;;5014282;28;20283;-90
2021/03/15 06:53:14;;;;;;;25.17;10.80;;;4.30;99.90;;;;;;5027489;28;20204;-91
2021/03/15 06:55:42;;;;;;;19.43;11.20;;;3.90;99.90;;;;;;5026704;28;20213;-89
2021/03/15 06:58:28;;;;;;;23.83;11.13;;;3.70;99.90;;;;;;5028721;28;20195;-87
2021/03/15 07:01:09;;;;;;;22.17;10.60;;;3.80;99.90;;;;;;5015358;28;20272;-90
2021/03/15 07:03:35;;;;;;;22.93;10.23;;;3.90;99.90;;;;;;5031823;28;20230;-90
2021/03/15 07:06:01;;;;;;;17.93;9.63;;;4.00;99.90;;;;;;5014212;28;20235;-88
2021/03/15 07:08:27;;;;;;;18.03;9.37;;;4.10;99.90;;;;;;5029247;28;20196;-94
2021/03/15 07:10:55;;;;;;;20.30;11.03;;;4.20;99.90;;;;;;5032208;28;20626;-95
2021/03/15 07:13:23;;;;;;;18.53;9.57;;;4.30;99.90;;;;;;5023922;28;20191;-90
2021/03/15 07:15:50;;;;;;;17.77;9.23;;;4.10;99.90;;;;;;5038191;28;20225;-89
2021/03/15 07:18:22;;;;;;;17.53;9.40;;;4.20;99.90;;;;;;5033845;28;20651;-89
2021/03/15 07:20:54;;;;;;;18.60;9.23;;;4.20;99.90;;;;;;5045223;28;20216;-90
2021/03/15 07:23:39;;;;;;;19.33;9.47;;;4.30;99.90;;;;;;5042778;28;20215;-91
2021/03/15 07:26:23;;;;;;;20.03;9.30;;;4.30;99.90;;;;;;5039390;28;20274;-90
2021/03/15 07:28:50;;;;;;;15.67;9.67;;;4.40;99.90;;;;;;5039928;28;20195;-90
2021/03/15 07:31:19;;;;;;;14.77;8.23;;;4.70;99.90;;;;;;5024865;28;20234;-91
2021/03/15 07:33:55;;;;;;;19.10;9.20;;;4.40;99.90;;;;;;5030083;28;20183;-91
2021/03/15 07:36:25;;;;;;;22.63;8.40;;;4.40;99.90;;;;;;5033176;28;20222;-90
2021/03/15 07:38:52;;;;;;;19.07;10.13;;;4.50;99.90;;;;;;5018750;28;20183;-90
2021/03/15 07:41:20;;;;;;;21.33;9.63;;;4.50;99.90;;;;;;5035395;28;20202;-90
2021/03/15 07:43:50;;;;;;;21.10;10.33;;;5.30;99.90;;;;;;5031591;28;20190;-90
2021/03/15 07:46:24;;;;;;;17.77;9.43;;;4.30;99.90;;;;;;5035798;28;20179;-87
2021/03/15 07:48:51;;;;;;;15.10;8.70;;;4.60;99.90;;;;;;5035491;28;20196;-90
2021/03/15 07:51:34;;;;;;;17.33;8.37;;;4.60;99.90;;;;;;5035990;28;20225;-91
2021/03/15 07:54:07;;;;;;;16.47;8.63;;;4.80;99.90;;;;;;5037284;28;20180;-89
2021/03/15 07:56:34;;;;;;;17.17;8.50;;;5.10;99.90;;;;;;5034848;28;20180;-89
2021/03/15 07:59:00;;;;;;;15.30;8.17;;;5.10;99.90;;;;;;5034046;28;20188;-90
2021/03/15 08:01:26;;;;;;;16.73;8.43;;;5.40;99.90;;;;;;5033910;28;20685;-89
2021/03/15 08:03:52;;;;;;;12.23;7.07;;;5.40;99.90;;;;;;5033329;28;20195;-89
2021/03/15 08:06:21;;;;;;;14.30;6.60;;;5.50;99.90;;;;;;5033082;28;20677;-89
2021/03/15 08:08:47;;;;;;;13.03;7.03;;;5.60;99.90;;;;;;5034599;28;20733;-88
2021/03/15 08:11:15;;;;;;;10.40;5.67;;;5.70;99.90;;;;;;5033501;28;20266;-89
2021/03/15 08:13:49;;;;;;;15.73;6.60;;;5.60;99.90;;;;;;5033946;28;20191;-90
2021/03/15 08:16:21;;;;;;;14.10;6.83;;;5.20;99.90;;;;;;5016016;28;20256;-89
2021/03/15 08:18:48;;;;;;;13.33;6.60;;;5.70;99.90;;;;;;5032226;28;20185;-89
2021/03/15 08:21:26;;;;;;;9.67;6.20;;;5.80;99.90;;;;;;5033561;28;20210;-89
2021/03/15 08:23:54;;;;;;;11.10;6.40;;;5.90;99.90;;;;;;5033662;28;20184;-88
2021/03/15 08:26:20;;;;;;;15.10;6.40;;;5.70;99.90;;;;;;5015459;28;20640;-89
2021/03/15 08:28:50;;;;;;;11.50;6.47;;;5.50;99.90;;;;;;5031383;28;20201;-88
2021/03/15 08:31:26;;;;;;;12.37;6.50;;;5.60;99.90;;;;;;5031887;28;20270;-87
2021/03/15 08:33:53;;;;;;;13.87;5.57;;;5.60;99.90;;;;;;5034292;28;20172;-88
2021/03/15 08:36:19;;;;;;;11.53;5.73;;;5.70;99.90;;;;;;5034525;28;20177;-89
2021/03/15 08:38:45;;;;;;;9.90;5.40;;;5.80;99.90;;;;;;5032945;28;20640;-89
2021/03/15 08:41:22;;;;;;;16.37;7.53;;;5.90;99.90;;;;;;5017090;28;20208;-90
2021/03/15 08:43:49;;;;;;;12.90;7.33;;;5.90;99.90;;;;;;5017150;28;20192;-92
2021/03/15 08:46:18;;;;;;;14.07;7.37;;;5.90;99.90;;;;;;5016541;28;20177;-92
2021/03/15 08:48:49;;;;;;;14.73;7.80;;;5.70;99.90;;;;;;5032907;28;20187;-90
2021/03/15 08:51:38;;;;;;;16.97;6.87;;;5.80;99.90;;;;;;5032597;28;20188;-91
2021/03/15 08:54:06;;;;;;;12.70;6.30;;;5.70;99.90;;;;;;5025449;28;20235;-90
2021/03/15 08:56:31;;;;;;;14.70;7.77;;;5.70;99.90;;;;;;5016370;28;20194;-90
2021/03/15 08:58:59;;;;;;;15.10;8.53;;;5.90;99.90;;;;;;5032329;28;20181;-91
2021/03/15 09:01:26;;;;;;;14.83;7.40;;;5.50;99.90;;;;;;5032533;28;20200;-91
2021/03/15 09:03:53;;;;;;;14.77;6.33;;;6.30;99.90;;;;;;5033725;28;20176;-90
2021/03/15 09:06:36;;;;;;;6.60;4.97;;;6.40;99.90;;;;;;5015524;28;20648;-90
2021/03/15 09:09:09;;;;;;;8.07;5.00;;;6.50;99.90;;;;;;5033773;28;20175;-90
2021/03/15 09:11:37;;;;;;;11.03;5.73;;;6.50;99.90;;;;;;5032510;28;20191;-91
2021/03/15 09:14:24;;;;;;;12.93;5.87;;;6.60;99.90;;;;;;5032174;28;20187;-93
2021/03/15 09:16:57;;;;;;;12.43;5.70;;;6.80;99.90;;;;;;5036437;28;20168;-90
2021/03/15 09:19:28;;;;;;;6.63;4.63;;;6.60;99.90;;;;;;5034945;28;20187;-90
2021/03/15 09:22:04;;;;;;;8.03;4.43;;;6.60;99.90;;;;;;5018180;28;20242;-92
2021/03/15 09:24:45;;;;;;;7.60;3.97;;;6.60;99.90;;;;;;5034749;28;20215;-90
2021/03/15 09:27:26;;;;;;;8.57;4.13;;;6.40;99.90;;;;;;5033334;28;20235;-91
2021/03/15 09:30:09;;;;;;;9.53;4.20;;;6.30;99.90;;;;;;5020076;28;20192;-91
2021/03/15 09:32:40;;;;;;;6.53;3.63;;;6.20;99.90;;;;;;5034346;28;20191;-88
2021/03/15 09:35:18;;;;;;;8.90;4.10;;;6.20;98.10;;;;;;5032259;28;20298;-90
2021/03/15 09:38:08;;;;;;;10.50;4.60;;;6.20;97.30;;;;;;5031508;28;20191;-86
2021/03/15 09:40:38;;;;;;;10.00;4.73;;;6.30;96.90;;;;;;5032091;28;20199;-90
2021/03/15 09:43:04;;;;;;;8.43;4.10;;;6.30;97.60;;;;;;5030843;28;20306;-90
2021/03/15 09:45:38;;;;;;;8.17;4.70;;;6.50;96.90;;;;;;4998619;28;20184;-89
2021/03/15 09:48:15;;;;;;;7.53;4.50;;;6.50;96.90;;;;;;5032423;28;20168;-89
2021/03/15 09:50:46;;;;;;;8.60;4.53;;;6.80;94.80;;;;;;5030630;28;20703;-89
2021/03/15 09:53:14;;;;;;;7.60;4.10;;;7.20;96.60;;;;;;5031424;28;20188;-90
2021/03/15 09:55:40;;;;;;;9.93;4.67;;;7.40;94.50;;;;;;5030970;28;20176;-88
2021/03/15 09:58:08;;;;;;;8.43;4.10;;;7.60;94.20;;;;;;5034300;28;20176;-88
2021/03/15 10:00:34;;;;;;;9.63;4.20;;;7.70;91.50;;;;;;5036422;28;20204;-90
2021/03/15 10:03:01;;;;;;;7.67;4.73;;;7.80;90.00;;;;;;5038264;28;20238;-90
2021/03/15 10:05:27;;;;;;;8.70;4.13;;;7.80;90.80;;;;;;5034404;28;20612;-89
2021/03/15 10:07:53;;;;;;;10.30;5.10;;;7.80;91.90;;;;;;5032845;28;20183;-88
2021/03/15 10:10:23;;;;;;;10.40;4.80;;;7.90;90.90;;;;;;5034503;28;20287;-89
2021/03/15 10:12:58;;;;;;;9.33;4.87;;;7.90;89.20;;;;;;5034772;28;20184;-89
2021/03/15 10:15:24;;;;;;;10.10;4.10;;;7.90;84.30;;;;;;5033590;28;20195;-88
2021/03/15 10:17:50;;;;;;;13.90;4.80;;;8.00;83.90;;;;;;5016176;28;20208;-88
2021/03/15 10:20:30;;;;;;;13.33;6.07;;;7.70;85.80;;;;;;5016046;28;20653;-90
2021/03/15 10:22:57;;;;;;;7.60;4.00;;;7.60;88.10;;;;;;5034237;28;20165;-89
2021/03/15 10:25:23;;;;;;;5.97;3.50;;;7.50;83.80;;;;;;5032544;28;20188;-89
2021/03/15 10:27:58;;;;;;;7.47;3.53;;;7.20;84.40;;;;;;5015971;28;20279;-87
2021/03/15 10:30:32;;;;;;;7.07;3.30;;;7.20;85.00;;;;;;5015379;28;20191;-87
2021/03/15 10:32:59;;;;;;;7.77;3.50;;;7.10;83.00;;;;;;5031839;28;20229;-86
2021/03/15 10:35:28;;;;;;;6.50;2.60;;;7.20;81.70;;;;;;5032274;28;20176;-86
2021/03/15 10:37:56;;;;;;;7.13;2.70;;;7.20;81.40;;;;;;5032171;28;20181;-89
2021/03/15 10:40:23;;;;;;;4.73;3.60;;;7.50;80.30;;;;;;5031640;28;20208;-88
2021/03/15 10:42:50;;;;;;;5.37;2.83;;;8.00;82.70;;;;;;5031643;28;20191;-89
2021/03/15 10:45:17;;;;;;;6.97;3.67;;;8.60;81.00;;;;;;5032884;28;20179;-89
2021/03/15 10:47:43;;;;;;;7.73;3.20;;;7.60;76.90;;;;;;5032560;28;20181;-85
2021/03/15 10:50:32;;;;;;;11.83;3.57;;;9.30;74.90;;;;;;5031491;28;20177;-85
2021/03/15 10:53:17;;;;;;;8.97;4.23;;;9.90;72.90;;;;;;5032609;28;20173;-86
2021/03/15 10:55:43;;;;;;;10.77;5.17;;;8.70;67.90;;;;;;5031721;28;20187;-87
2021/03/15 10:58:13;;;;;;;13.60;5.53;;;8.50;69.50;;;;;;5031408;28;20177;-86
2021/03/15 11:00:41;;;;;;;12.70;5.10;;;9.30;71.50;;;;;;5033678;28;20200;-89
2021/03/15 11:03:22;;;;;;;13.23;5.10;;;8.50;69.50;;;;;;5031836;28;20185;-88
2021/03/15 11:06:01;;;;;;;11.80;6.27;;;8.90;75.50;;;;;;5033121;28;20301;-88
2021/03/15 11:08:26;;;;;;;11.37;5.43;;;8.80;76.30;;;;;;5030718;28;20565;-87
2021/03/15 11:10:52;;;;;;;10.17;5.07;;;8.60;76.00;;;;;;5033016;28;20192;-86
2021/03/15 11:13:21;;;;;;;9.50;4.97;;;8.30;75.20;;;;;;5035536;28;20310;-88
2021/03/15 11:15:47;;;;;;;14.27;8.93;;;8.20;76.70;;;;;;5035045;28;20626;-89
2021/03/15 11:18:21;;;;;;;8.63;4.60;;;8.10;78.40;;;;;;5034438;28;20173;-89
2021/03/15 11:20:59;;;;;;;7.47;4.20;;;7.90;77.10;;;;;;5034192;28;20211;-89
2021/03/15 11:23:37;;;;;;;7.90;4.30;;;7.90;79.10;;;;;;5035379;28;20254;-89
2021/03/15 11:26:09;;;;;;;8.77;4.23;;;8.10;81.40;;;;;;5035463;28;20195;-88
2021/03/15 11:28:56;;;;;;;9.23;4.00;;;8.30;74.90;;;;;;5035068;28;20179;-89
2021/03/15 11:31:30;;;;;;;8.83;3.90;;;8.60;77.40;;;;;;5035158;28;20208;-89
2021/03/15 11:33:57;;;;;;;5.53;3.37;;;9.00;76.10;;;;;;5034581;28;20176;-88
2021/03/15 11:36:25;;;;;;;5.93;3.40;;;9.10;72.00;;;;;;5035191;28;20206;-89
2021/03/15 11:38:54;;;;;;;6.73;3.47;;;9.20;67.20;;;;;;5017860;28;20199;-89
2021/03/15 11:41:22;;;;;;;7.13;3.73;;;9.00;67.30;;;;;;5032079;28;20258;-90
2021/03/15 11:43:48;;;;;;;9.60;4.27;;;9.00;66.90;;;;;;5036916;28;20180;-86
2021/03/15 11:46:14;;;;;;;8.60;3.53;;;9.00;69.60;;;;;;5035878;28;20275;-86
2021/03/15 11:48:40;;;;;;;8.27;3.87;;;9.10;67.20;;;;;;5053485;28;20215;-88
2021/03/15 11:51:09;;;;;;;6.33;3.67;;;8.70;68.10;;;;;;5059352;28;20184;-90
2021/03/15 11:53:34;;;;;;;8.87;4.33;;;8.60;68.30;;;;;;5047628;28;20173;-90
2021/03/15 11:56:00;;;;;;;8.70;4.40;;;8.70;69.40;;;;;;5019733;28;20627;-90
2021/03/15 11:58:26;;;;;;;8.10;4.23;;;8.40;71.20;;;;;;5049384;28;20180;-85
2021/03/15 12:00:51;;;;;;;8.73;4.03;;;8.20;71.50;;;;;;5040823;28;20216;-90
2021/03/15 12:03:17;;;;;;;5.90;3.57;;;8.30;71.30;;;;;;5023953;28;20167;-90
2021/03/15 12:05:43;;;;;;;7.47;4.57;;;8.40;71.30;;;;;;5048134;28;20635;-90
2021/03/15 12:08:09;;;;;;;7.17;4.50;;;8.30;71.30;;;;;;5016934;28;20220;-90
2021/03/15 12:10:34;;;;;;;7.67;4.00;;;8.30;72.70;;;;;;5017652;28;20196;-88
2021/03/15 12:13:00;;;;;;;11.10;5.50;;;8.30;70.40;;;;;;5015363;28;20614;-86
2021/03/15 12:15:26;;;;;;;9.53;5.40;;;8.30;70.70;;;;;;5045858;28;20185;-91
2021/03/15 12:17:52;;;;;;;9.77;4.73;;;8.30;72.10;;;;;;5024391;28;20189;-89
2021/03/15 12:20:18;;;;;;;13.80;7.63;;;8.20;70.60;;;;;;5022620;28;20641;-89
2021/03/15 12:22:46;;;;;;;10.37;4.53;;;8.30;69.60;;;;;;5037991;28;20214;-91
2021/03/15 12:25:12;;;;;;;12.57;4.90;;;8.30;70.10;;;;;;5019123;28;20184;-89
2021/03/15 12:27:38;;;;;;;8.77;4.63;;;8.40;69.90;;;;;;5016758;28;20199;-91
2021/03/15 12:30:04;;;;;;;9.30;4.57;;;8.50;69.40;;;;;;5034260;28;20657;-89
2021/03/15 12:32:30;;;;;;;4.77;3.80;;;8.50;68.20;;;;;;5032937;28;20730;-89
2021/03/15 12:34:57;;;;;;;5.73;3.60;;;8.40;70.00;;;;;;5033386;28;20572;-89
2021/03/15 12:37:23;;;;;;;7.97;4.30;;;8.40;66.90;;;;;;5033431;28;20180;-89
2021/03/15 12:39:49;;;;;;;6.83;3.83;;;8.60;66.70;;;;;;5034108;28;20242;-89
2021/03/15 12:42:18;;;;;;;6.63;3.70;;;8.90;67.20;;;;;;5009665;28;20204;-90
2021/03/15 12:44:44;;;;;;;6.40;3.70;;;9.30;65.30;;;;;;5035538;28;20629;-88
2021/03/15 12:47:11;;;;;;;7.10;3.73;;;9.50;63.70;;;;;;5033056;28;20181;-88
2021/03/15 12:49:39;;;;;;;6.97;4.00;;;9.80;63.00;;;;;;5016381;28;20169;-88
2021/03/15 12:52:05;;;;;;;9.87;4.20;;;10.10;62.50;;;;;;5016684;28;20271;-89
2021/03/15 12:54:31;;;;;;;10.77;4.43;;;10.40;61.30;;;;;;5032666;28;20653;-89
2021/03/15 12:56:57;;;;;;;7.83;4.63;;;10.50;61.20;;;;;;5033238;28;20181;-88
2021/03/15 12:59:23;;;;;;;7.67;4.97;;;10.40;61.90;;;;;;5034105;28;20223;-89